createdAt,value
2019-02-24T00:00:40.190Z,0
2019-02-24T00:01:49.551Z,0
2019-02-24T00:02:58.964Z,0
2019-02-24T00:04:08.584Z,0
2019-02-24T00:05:17.948Z,0
2019-02-24T00:06:27.578Z,0
2019-02-24T00:07:36.700Z,0
2019-02-24T00:08:46.121Z,0
2019-02-24T00:09:55.426Z,0
2019-02-24T00:11:04.975Z,0
2019-02-24T00:12:14.075Z,0
2019-02-24T00:13:23.404Z,0
2019-02-24T00:14:32.253Z,0
2019-02-24T00:15:41.542Z,0
2019-02-24T00:16:51.102Z,0
2019-02-24T00:18:00.725Z,0
2019-02-24T00:19:11.175Z,0
2019-02-24T00:20:20.266Z,0
2019-02-24T00:21:29.587Z,0
2019-02-24T00:22:39.529Z,0
2019-02-24T00:23:48.916Z,0
2019-02-24T00:24:58.299Z,0
2019-02-24T00:26:09.158Z,0
2019-02-24T00:27:18.718Z,0
2019-02-24T00:28:27.531Z,0
2019-02-24T00:29:37.151Z,0
2019-02-24T00:30:46.280Z,0
2019-02-24T00:31:55.960Z,0
2019-02-24T00:33:05.027Z,0
2019-02-24T00:34:14.357Z,0
2019-02-24T00:35:24.063Z,0
2019-02-24T00:36:33.698Z,0
2019-02-24T00:37:42.536Z,0
2019-02-24T00:38:51.637Z,0
2019-02-24T00:40:00.596Z,0
2019-02-24T00:41:10.286Z,0
2019-02-24T00:42:19.719Z,0
2019-02-24T00:43:29.145Z,0
2019-02-24T00:44:38.576Z,0
2019-02-24T00:45:47.923Z,0
2019-02-24T00:46:56.818Z,0
2019-02-24T00:48:06.509Z,0
2019-02-24T00:49:15.492Z,0
2019-02-24T00:50:24.580Z,0
2019-02-24T00:51:33.442Z,0
2019-02-24T00:52:42.524Z,0
2019-02-24T00:53:52.167Z,0
2019-02-24T00:55:01.275Z,0
2019-02-24T00:56:11.224Z,0
2019-02-24T00:57:20.803Z,0
2019-02-24T00:58:30.414Z,0
2019-02-24T00:59:39.929Z,0
2019-02-24T01:00:49.133Z,0
2019-02-24T01:01:59.457Z,0
2019-02-24T01:03:08.829Z,0
2019-02-24T01:04:18.566Z,0
2019-02-24T01:05:27.709Z,0
2019-02-24T01:06:36.781Z,0
2019-02-24T01:07:46.124Z,0
2019-02-24T01:08:54.984Z,0
2019-02-24T01:10:04.180Z,0
2019-02-24T01:11:13.674Z,0
2019-02-24T01:12:23.556Z,0
2019-02-24T01:13:32.969Z,0
2019-02-24T01:14:43.203Z,0
2019-02-24T01:15:52.643Z,0
2019-02-24T01:17:02.050Z,0
2019-02-24T01:18:11.775Z,0
2019-02-24T01:19:21.073Z,0
2019-02-24T01:20:30.978Z,0
2019-02-24T01:21:40.266Z,0
2019-02-24T01:22:49.426Z,0
2019-02-24T01:23:58.803Z,0
2019-02-24T01:25:08.488Z,0
2019-02-24T01:26:17.978Z,0
2019-02-24T01:27:27.332Z,0
2019-02-24T01:28:36.415Z,0
2019-02-24T01:29:46.080Z,0
2019-02-24T01:30:55.987Z,0
2019-02-24T01:32:05.548Z,0
2019-02-24T01:33:15.495Z,0
2019-02-24T01:34:25.110Z,0
2019-02-24T01:35:34.666Z,0
2019-02-24T01:36:44.380Z,0
2019-02-24T01:37:53.850Z,0
2019-02-24T01:39:03.330Z,0
2019-02-24T01:40:12.748Z,0
2019-02-24T01:41:22.166Z,0
2019-02-24T01:42:31.491Z,0
2019-02-24T01:43:41.134Z,0
2019-02-24T01:44:50.238Z,0
2019-02-24T01:45:59.579Z,0
2019-02-24T01:47:08.964Z,0
2019-02-24T01:48:18.582Z,0
2019-02-24T01:49:27.965Z,0
2019-02-24T01:50:37.568Z,0
2019-02-24T01:51:46.721Z,0
2019-02-24T01:52:56.001Z,0
2019-02-24T01:54:05.939Z,0
2019-02-24T01:55:15.300Z,0
2019-02-24T01:56:24.216Z,0
2019-02-24T01:57:33.065Z,0
2019-02-24T01:58:42.202Z,0
2019-02-24T01:59:51.274Z,0
2019-02-24T02:01:00.897Z,0
2019-02-24T02:02:09.971Z,0
2019-02-24T02:03:19.080Z,0
2019-02-24T02:04:28.561Z,0
2019-02-24T02:05:38.219Z,0
2019-02-24T02:06:47.631Z,0
2019-02-24T02:07:57.059Z,0
2019-02-24T02:09:06.416Z,0
2019-02-24T02:10:15.857Z,0
2019-02-24T02:11:25.446Z,0
2019-02-24T02:12:35.329Z,0
2019-02-24T02:13:45.223Z,0
2019-02-24T02:14:54.093Z,0
2019-02-24T02:16:47.848Z,0
2019-02-24T02:17:57.215Z,0
2019-02-24T02:19:06.070Z,0
2019-02-24T02:20:15.680Z,0
2019-02-24T02:21:25.408Z,0
2019-02-24T02:22:35.252Z,0
2019-02-24T02:23:44.147Z,0
2019-02-24T02:24:54.005Z,0
2019-02-24T02:26:03.947Z,0
2019-02-24T02:27:13.530Z,0
2019-02-24T02:28:22.425Z,0
2019-02-24T02:29:31.393Z,0
2019-02-24T02:30:41.252Z,0
2019-02-24T02:31:51.396Z,0
2019-02-24T02:33:00.965Z,0
2019-02-24T02:34:11.070Z,0
2019-02-24T02:35:20.440Z,0
2019-02-24T02:36:30.136Z,0
2019-02-24T02:37:39.716Z,0
2019-02-24T02:38:49.558Z,0
2019-02-24T02:39:59.175Z,0
2019-02-24T02:41:08.705Z,0
2019-02-24T02:42:18.057Z,0
2019-02-24T02:43:27.620Z,0
2019-02-24T02:44:36.740Z,0
2019-02-24T02:45:46.264Z,0
2019-02-24T02:46:55.392Z,0
2019-02-24T02:48:05.493Z,0
2019-02-24T02:49:15.376Z,0
2019-02-24T02:50:25.004Z,0
2019-02-24T02:51:34.388Z,0
2019-02-24T02:52:43.698Z,0
2019-02-24T02:53:53.252Z,0
2019-02-24T02:55:02.585Z,0
2019-02-24T02:56:13.143Z,0
2019-02-24T02:57:22.521Z,0
2019-02-24T02:58:32.012Z,0
2019-02-24T02:59:41.117Z,0
2019-02-24T03:00:50.714Z,0
2019-02-24T03:02:00.008Z,0
2019-02-24T03:03:10.101Z,0
2019-02-24T03:04:19.373Z,0
2019-02-24T03:05:28.376Z,0
2019-02-24T03:06:37.916Z,0
2019-02-24T03:07:47.237Z,0
2019-02-24T03:08:56.535Z,0
2019-02-24T03:10:07.479Z,0
2019-02-24T03:11:16.981Z,0
2019-02-24T03:12:26.789Z,0
2019-02-24T03:13:36.043Z,0
2019-02-24T03:14:45.363Z,0
2019-02-24T03:15:54.422Z,0
2019-02-24T03:17:04.236Z,0
2019-02-24T03:18:14.102Z,0
2019-02-24T03:19:23.652Z,0
2019-02-24T03:20:32.678Z,0
2019-02-24T03:21:41.940Z,0
2019-02-24T03:22:52.033Z,0
2019-02-24T03:24:01.340Z,0
2019-02-24T03:25:10.905Z,0
2019-02-24T03:26:20.977Z,0
2019-02-24T03:27:30.145Z,0
2019-02-24T03:28:39.480Z,0
2019-02-24T03:29:49.316Z,0
2019-02-24T03:30:59.098Z,0
2019-02-24T03:32:09.287Z,0
2019-02-24T03:33:19.195Z,0
2019-02-24T03:34:29.058Z,0
2019-02-24T03:35:38.411Z,0
2019-02-24T03:36:47.971Z,0
2019-02-24T03:37:57.855Z,0
2019-02-24T03:39:07.895Z,0
2019-02-24T03:40:16.944Z,0
2019-02-24T03:41:26.274Z,0
2019-02-24T03:42:35.538Z,0
2019-02-24T03:43:45.128Z,0
2019-02-24T03:44:54.396Z,0
2019-02-24T03:46:03.977Z,0
2019-02-24T03:47:12.992Z,0
2019-02-24T03:48:22.040Z,0
2019-02-24T03:49:31.435Z,0
2019-02-24T03:50:40.488Z,0
2019-02-24T03:51:49.908Z,0
2019-02-24T03:52:59.526Z,0
2019-02-24T03:54:09.377Z,0
2019-02-24T03:55:18.889Z,0
2019-02-24T03:56:28.730Z,0
2019-02-24T03:57:38.498Z,0
2019-02-24T03:58:47.549Z,0
2019-02-24T03:59:57.355Z,0
2019-02-24T04:01:06.880Z,0
2019-02-24T04:02:16.447Z,0
2019-02-24T04:03:26.229Z,0
2019-02-24T04:04:35.832Z,0
2019-02-24T04:05:45.454Z,0
2019-02-24T04:06:54.503Z,0
2019-02-24T04:08:03.750Z,0
2019-02-24T04:09:13.775Z,0
2019-02-24T04:10:22.586Z,0
2019-02-24T04:11:31.875Z,0
2019-02-24T04:12:41.880Z,0
2019-02-24T04:13:51.491Z,0
2019-02-24T04:15:01.247Z,0
2019-02-24T04:16:10.771Z,0
2019-02-24T04:17:20.313Z,0
2019-02-24T04:18:29.333Z,0
2019-02-24T04:19:38.696Z,0
2019-02-24T04:20:48.524Z,0
2019-02-24T04:21:57.821Z,0
2019-02-24T04:23:07.294Z,0
2019-02-24T04:24:16.868Z,0
2019-02-24T04:25:26.210Z,0
2019-02-24T04:26:35.210Z,0
2019-02-24T04:27:44.461Z,0
2019-02-24T04:28:53.718Z,0
2019-02-24T04:30:03.730Z,0
2019-02-24T04:31:13.477Z,0
2019-02-24T04:32:22.768Z,0
2019-02-24T04:33:32.311Z,0
2019-02-24T04:34:41.329Z,0
2019-02-24T04:35:50.618Z,0
2019-02-24T04:36:59.943Z,0
2019-02-24T04:38:09.538Z,0
2019-02-24T04:39:18.370Z,0
2019-02-24T04:40:27.691Z,0
2019-02-24T04:41:37.342Z,0
2019-02-24T04:42:46.683Z,0
2019-02-24T04:43:56.753Z,0
2019-02-24T04:45:06.343Z,0
2019-02-24T04:46:15.428Z,0
2019-02-24T04:47:24.516Z,0
2019-02-24T04:48:33.815Z,0
2019-02-24T04:49:43.657Z,0
2019-02-24T04:50:53.185Z,0
2019-02-24T04:52:03.247Z,0
2019-02-24T04:53:12.829Z,0
2019-02-24T04:54:22.185Z,0
2019-02-24T04:55:31.509Z,0
2019-02-24T04:56:40.600Z,0
2019-02-24T04:57:49.703Z,0
2019-02-24T04:58:59.723Z,0
2019-02-24T05:00:09.088Z,0
2019-02-24T05:01:18.716Z,0
2019-02-24T05:02:28.045Z,0
2019-02-24T05:03:37.913Z,0
2019-02-24T05:04:47.245Z,0
2019-02-24T05:05:56.625Z,0
2019-02-24T05:07:06.200Z,0
2019-02-24T05:08:15.763Z,0
2019-02-24T05:09:25.616Z,0
2019-02-24T05:10:34.429Z,0
2019-02-24T05:11:43.200Z,0
2019-02-24T05:12:52.725Z,0
2019-02-24T05:14:02.722Z,0
2019-02-24T05:15:11.906Z,0
2019-02-24T05:16:21.359Z,0
2019-02-24T05:17:31.186Z,0
2019-02-24T05:18:41.037Z,0
2019-02-24T05:19:50.082Z,0
2019-02-24T05:20:59.392Z,0
2019-02-24T05:22:09.063Z,0
2019-02-24T05:23:18.185Z,0
2019-02-24T05:24:27.557Z,0
2019-02-24T05:25:36.591Z,0
2019-02-24T05:26:45.739Z,0
2019-02-24T05:27:55.050Z,0
2019-02-24T05:29:04.345Z,0
2019-02-24T05:30:13.866Z,0
2019-02-24T05:31:23.427Z,0
2019-02-24T05:32:32.979Z,0
2019-02-24T05:33:42.044Z,0
2019-02-24T05:34:51.887Z,0
2019-02-24T05:36:01.128Z,0
2019-02-24T05:37:10.695Z,0
2019-02-24T05:38:20.525Z,0
2019-02-24T05:39:30.287Z,0
2019-02-24T05:40:39.857Z,0
2019-02-24T05:41:49.187Z,0
2019-02-24T05:42:58.455Z,0
2019-02-24T05:44:07.780Z,0
2019-02-24T05:45:17.328Z,0
2019-02-24T05:46:27.162Z,0
2019-02-24T05:47:37.248Z,0
2019-02-24T05:48:46.531Z,0
2019-02-24T05:49:56.193Z,0
2019-02-24T05:51:05.263Z,0
2019-02-24T05:52:14.283Z,0
2019-02-24T05:53:23.826Z,0
2019-02-24T05:54:32.833Z,0
2019-02-24T05:55:42.113Z,0
2019-02-24T05:56:52.180Z,0
2019-02-24T05:58:01.444Z,0
2019-02-24T05:59:10.752Z,0
2019-02-24T06:00:20.281Z,0
2019-02-24T06:01:29.801Z,0
2019-02-24T06:02:39.139Z,0
2019-02-24T06:03:47.977Z,0
2019-02-24T06:04:57.507Z,0
2019-02-24T06:06:07.369Z,0
2019-02-24T06:07:16.438Z,0
2019-02-24T06:08:25.997Z,0
2019-02-24T06:09:35.351Z,0
2019-02-24T06:10:45.365Z,0
2019-02-24T06:11:54.894Z,0
2019-02-24T06:13:03.679Z,0
2019-02-24T06:14:13.005Z,0
2019-02-24T06:15:22.285Z,0
2019-02-24T06:16:32.129Z,0
2019-02-24T06:17:41.714Z,0
2019-02-24T06:18:50.837Z,0
2019-02-24T06:19:59.869Z,0
2019-02-24T06:21:09.727Z,0
2019-02-24T06:22:19.051Z,0
2019-02-24T06:23:28.151Z,0
2019-02-24T06:24:37.755Z,0
2019-02-24T06:25:47.773Z,0
2019-02-24T06:26:56.808Z,0
2019-02-24T06:28:06.299Z,0
2019-02-24T06:29:15.620Z,0
2019-02-24T06:30:24.906Z,0
2019-02-24T06:31:34.936Z,0
2019-02-24T06:32:44.482Z,0
2019-02-24T06:33:53.793Z,0
2019-02-24T06:35:03.577Z,0
2019-02-24T06:36:13.367Z,0
2019-02-24T06:37:22.647Z,0
2019-02-24T06:38:31.660Z,0
2019-02-24T06:39:41.443Z,0
2019-02-24T06:40:51.026Z,0
2019-02-24T06:42:00.788Z,0
2019-02-24T06:43:09.869Z,0
2019-02-24T06:44:18.908Z,0
2019-02-24T06:45:27.931Z,0
2019-02-24T06:46:36.677Z,0
2019-02-24T06:47:46.191Z,0
2019-02-24T06:48:55.489Z,0
2019-02-24T06:50:05.536Z,0
2019-02-24T06:51:14.825Z,0
2019-02-24T06:52:24.296Z,4
2019-02-24T06:53:35.531Z,4
2019-02-24T06:54:44.805Z,4
2019-02-24T06:55:54.790Z,4
2019-02-24T06:57:04.037Z,4
2019-02-24T06:58:13.417Z,4
2019-02-24T06:59:22.428Z,4
2019-02-24T07:00:31.996Z,4
2019-02-24T07:01:41.567Z,4
2019-02-24T07:02:50.600Z,4
2019-02-24T07:04:01.320Z,4
2019-02-24T07:05:10.918Z,4
2019-02-24T07:06:20.463Z,4
2019-02-24T07:07:29.974Z,4
2019-02-24T07:08:39.303Z,4
2019-02-24T07:09:48.326Z,4
2019-02-24T07:10:58.111Z,4
2019-02-24T07:12:07.165Z,4
2019-02-24T07:13:16.474Z,0
2019-02-24T07:14:25.846Z,0
2019-02-24T07:15:35.446Z,4
2019-02-24T07:16:45.220Z,4
2019-02-24T07:17:54.536Z,4
2019-02-24T07:19:04.068Z,4
2019-02-24T07:20:14.040Z,4
2019-02-24T07:21:23.375Z,4
2019-02-24T07:22:32.427Z,4
2019-02-24T07:23:41.954Z,4
2019-02-24T07:24:50.944Z,4
2019-02-24T07:26:00.155Z,4
2019-02-24T07:27:09.386Z,4
2019-02-24T07:28:18.932Z,4
2019-02-24T07:29:28.147Z,8
2019-02-24T07:30:37.394Z,8
2019-02-24T07:31:46.387Z,8
2019-02-24T07:32:56.136Z,8
2019-02-24T07:34:05.107Z,8
2019-02-24T07:35:14.842Z,4
2019-02-24T07:36:24.683Z,4
2019-02-24T07:37:34.433Z,4
2019-02-24T07:38:43.969Z,4
2019-02-24T07:39:55.004Z,4
2019-02-24T07:41:04.289Z,4
2019-02-24T07:42:13.597Z,8
2019-02-24T07:43:23.365Z,8
2019-02-24T07:44:32.356Z,8
2019-02-24T07:45:41.934Z,8
2019-02-24T07:46:51.048Z,8
2019-02-24T07:48:00.386Z,8
2019-02-24T07:49:10.169Z,8
2019-02-24T07:50:19.222Z,8
2019-02-24T07:51:28.519Z,8
2019-02-24T07:52:38.112Z,8
2019-02-24T07:53:47.679Z,8
2019-02-24T07:54:57.471Z,8
2019-02-24T07:56:07.294Z,4
2019-02-24T07:57:16.385Z,4
2019-02-24T07:58:25.416Z,8
2019-02-24T07:59:34.711Z,8
2019-02-24T08:00:44.272Z,8
2019-02-24T08:01:54.095Z,8
2019-02-24T08:03:03.388Z,8
2019-02-24T08:04:12.636Z,8
2019-02-24T08:05:22.433Z,8
2019-02-24T08:06:31.990Z,8
2019-02-24T08:07:41.263Z,8
2019-02-24T08:08:50.345Z,12
2019-02-24T08:09:59.840Z,12
2019-02-24T08:11:09.564Z,8
2019-02-24T08:12:18.833Z,8
2019-02-24T08:13:28.386Z,8
2019-02-24T08:14:37.588Z,8
2019-02-24T08:15:46.808Z,8
2019-02-24T08:16:56.100Z,12
2019-02-24T08:18:05.390Z,12
2019-02-24T08:19:15.179Z,12
2019-02-24T08:20:24.681Z,12
2019-02-24T08:21:33.955Z,8
2019-02-24T08:22:43.227Z,8
2019-02-24T08:23:52.762Z,12
2019-02-24T08:25:01.822Z,12
2019-02-24T08:26:11.667Z,12
2019-02-24T08:27:20.737Z,12
2019-02-24T08:28:30.063Z,12
2019-02-24T08:29:38.814Z,12
2019-02-24T08:30:49.062Z,16
2019-02-24T08:31:57.829Z,12
2019-02-24T08:33:07.433Z,12
2019-02-24T08:34:16.158Z,12
2019-02-24T08:35:24.927Z,12
2019-02-24T08:36:34.489Z,16
2019-02-24T08:37:44.073Z,16
2019-02-24T08:38:53.808Z,12
2019-02-24T08:40:03.066Z,16
2019-02-24T08:41:12.820Z,16
2019-02-24T08:42:22.585Z,16
2019-02-24T08:43:32.313Z,20
2019-02-24T08:44:41.372Z,20
2019-02-24T08:45:50.439Z,20
2019-02-24T08:46:59.658Z,20
2019-02-24T08:48:09.700Z,24
2019-02-24T08:49:50.833Z,20
2019-02-24T08:51:00.997Z,20
2019-02-24T08:52:10.628Z,20
2019-02-24T08:53:20.570Z,16
2019-02-24T08:54:30.161Z,16
2019-02-24T08:55:39.920Z,16
2019-02-24T08:56:49.450Z,16
2019-02-24T08:57:59.094Z,16
2019-02-24T08:59:08.348Z,16
2019-02-24T09:00:17.868Z,20
2019-02-24T09:01:27.840Z,20
2019-02-24T09:02:36.819Z,16
2019-02-24T09:03:45.873Z,16
2019-02-24T09:04:55.222Z,20
2019-02-24T09:06:04.738Z,20
2019-02-24T09:07:15.869Z,20
2019-02-24T09:08:24.936Z,20
2019-02-24T09:09:33.939Z,20
2019-02-24T09:10:43.173Z,20
2019-02-24T09:11:52.989Z,24
2019-02-24T09:13:01.795Z,24
2019-02-24T09:14:11.119Z,24
2019-02-24T09:15:20.917Z,28
2019-02-24T09:16:30.252Z,28
2019-02-24T09:17:39.813Z,28
2019-02-24T09:18:48.865Z,28
2019-02-24T09:19:57.984Z,28
2019-02-24T09:21:07.643Z,32
2019-02-24T09:22:16.918Z,32
2019-02-24T09:23:25.985Z,36
2019-02-24T09:24:34.834Z,36
2019-02-24T09:25:44.505Z,40
2019-02-24T09:26:54.012Z,40
2019-02-24T09:28:04.076Z,40
2019-02-24T09:29:13.073Z,40
2019-02-24T09:30:22.913Z,44
2019-02-24T09:31:32.332Z,48
2019-02-24T09:32:41.594Z,48
2019-02-24T09:33:50.604Z,52
2019-02-24T09:35:00.295Z,52
2019-02-24T09:36:09.867Z,52
2019-02-24T09:37:19.393Z,52
2019-02-24T09:38:28.917Z,52
2019-02-24T09:39:37.960Z,56
2019-02-24T09:40:47.666Z,56
2019-02-24T09:41:56.923Z,56
2019-02-24T09:43:06.442Z,60
2019-02-24T09:44:15.730Z,60
2019-02-24T09:45:25.062Z,64
2019-02-24T09:46:35.355Z,64
2019-02-24T09:47:53.668Z,64
2019-02-24T09:49:02.935Z,64
2019-02-24T09:50:12.234Z,64
2019-02-24T09:51:21.580Z,68
2019-02-24T09:52:31.072Z,72
2019-02-24T09:53:40.100Z,72
2019-02-24T09:54:49.425Z,72
2019-02-24T09:55:59.473Z,72
2019-02-24T09:57:09.011Z,76
2019-02-24T09:58:18.537Z,76
2019-02-24T09:59:28.601Z,72
2019-02-24T10:00:37.863Z,76
2019-02-24T10:01:47.391Z,76
2019-02-24T10:02:57.573Z,76
2019-02-24T10:04:07.588Z,76
2019-02-24T10:05:17.114Z,76
2019-02-24T10:06:26.125Z,76
2019-02-24T10:07:35.884Z,76
2019-02-24T10:08:45.146Z,76
2019-02-24T10:09:54.883Z,72
2019-02-24T10:11:04.387Z,76
2019-02-24T10:12:13.641Z,72
2019-02-24T10:13:22.656Z,72
2019-02-24T10:14:31.922Z,76
2019-02-24T10:15:41.676Z,72
2019-02-24T10:16:50.923Z,72
2019-02-24T10:18:00.207Z,68
2019-02-24T10:19:09.788Z,72
2019-02-24T10:20:19.091Z,68
2019-02-24T10:21:28.346Z,68
2019-02-24T10:22:37.432Z,68
2019-02-24T10:23:48.090Z,68
2019-02-24T10:24:56.895Z,68
2019-02-24T10:26:06.853Z,68
2019-02-24T10:27:17.503Z,64
2019-02-24T10:28:27.656Z,64
2019-02-24T10:29:36.884Z,64
2019-02-24T10:30:45.948Z,60
2019-02-24T10:31:55.490Z,64
2019-02-24T10:33:05.973Z,60
2019-02-24T10:34:15.946Z,64
2019-02-24T10:35:25.372Z,60
2019-02-24T10:36:36.144Z,60
2019-02-24T10:37:45.628Z,60
2019-02-24T10:38:54.813Z,60
2019-02-24T10:40:04.517Z,56
2019-02-24T10:41:14.369Z,60
2019-02-24T10:42:23.756Z,56
2019-02-24T10:43:33.411Z,60
2019-02-24T10:44:43.284Z,56
2019-02-24T10:45:52.822Z,52
2019-02-24T10:47:02.493Z,56
2019-02-24T10:48:21.051Z,52
2019-02-24T10:49:30.568Z,52
2019-02-24T10:50:39.601Z,52
2019-02-24T10:51:49.092Z,52
2019-02-24T10:52:58.768Z,52
2019-02-24T10:54:08.299Z,52
2019-02-24T10:55:17.393Z,48
2019-02-24T10:56:26.887Z,48
2019-02-24T10:57:35.636Z,48
2019-02-24T10:58:45.404Z,48
2019-02-24T10:59:54.667Z,48
2019-02-24T11:01:04.172Z,44
2019-02-24T11:02:13.529Z,48
2019-02-24T11:03:22.771Z,44
2019-02-24T11:04:32.038Z,44
2019-02-24T11:05:41.840Z,44
2019-02-24T11:06:51.150Z,40
2019-02-24T11:08:00.671Z,44
2019-02-24T11:09:09.720Z,40
2019-02-24T11:10:19.244Z,40
2019-02-24T11:11:28.615Z,40
2019-02-24T11:12:37.658Z,40
2019-02-24T11:13:46.930Z,36
2019-02-24T11:14:56.420Z,40
2019-02-24T11:16:05.751Z,40
2019-02-24T11:17:15.016Z,36
2019-02-24T11:18:24.056Z,36
2019-02-24T11:19:33.602Z,36
2019-02-24T11:20:43.128Z,36
2019-02-24T11:21:52.414Z,36
2019-02-24T11:23:02.148Z,36
2019-02-24T11:24:11.413Z,36
2019-02-24T11:25:20.396Z,36
2019-02-24T11:26:31.485Z,32
2019-02-24T11:27:41.069Z,36
2019-02-24T11:28:50.610Z,32
2019-02-24T11:29:59.903Z,28
2019-02-24T11:31:09.162Z,32
2019-02-24T11:32:18.197Z,28
2019-02-24T11:33:27.957Z,32
2019-02-24T11:34:37.277Z,28
2019-02-24T11:35:47.097Z,28
2019-02-24T11:36:56.192Z,28
2019-02-24T11:38:05.257Z,24
2019-02-24T11:39:14.838Z,24
2019-02-24T11:40:24.696Z,24
2019-02-24T11:41:33.740Z,24
2019-02-24T11:42:43.096Z,20
2019-02-24T11:43:52.244Z,24
2019-02-24T11:45:01.689Z,24
2019-02-24T11:46:10.497Z,20
2019-02-24T11:47:19.623Z,20
2019-02-24T11:48:28.635Z,20
2019-02-24T11:49:37.926Z,20
2019-02-24T11:50:48.040Z,20
2019-02-24T11:52:06.032Z,20
2019-02-24T11:53:16.592Z,20
2019-02-24T11:54:26.901Z,20
2019-02-24T11:55:36.118Z,20
2019-02-24T11:56:45.440Z,20
2019-02-24T11:57:55.039Z,20
2019-02-24T11:59:04.012Z,20
2019-02-24T12:00:13.363Z,16
2019-02-24T12:01:22.680Z,16
2019-02-24T12:02:41.911Z,16
2019-02-24T12:03:51.837Z,16
2019-02-24T12:05:00.574Z,16
2019-02-24T12:06:09.561Z,20
2019-02-24T12:07:18.837Z,20
2019-02-24T12:08:28.072Z,24
2019-02-24T12:09:37.295Z,28
2019-02-24T12:10:46.803Z,24
2019-02-24T12:11:56.042Z,28
2019-02-24T12:13:05.776Z,28
2019-02-24T12:14:15.252Z,24
2019-02-24T12:15:24.529Z,28
2019-02-24T12:16:34.034Z,28
2019-02-24T12:17:43.335Z,28
2019-02-24T12:18:52.821Z,32
2019-02-24T12:20:02.325Z,28
2019-02-24T12:21:13.173Z,28
2019-02-24T12:22:22.190Z,28
2019-02-24T12:23:30.909Z,32
2019-02-24T12:24:40.637Z,28
2019-02-24T12:25:50.400Z,28
2019-02-24T12:26:59.880Z,32
2019-02-24T12:28:08.914Z,32
2019-02-24T12:29:18.665Z,32
2019-02-24T12:30:28.172Z,32
2019-02-24T12:31:37.384Z,32
2019-02-24T12:32:46.639Z,32
2019-02-24T12:33:56.859Z,36
2019-02-24T12:35:06.709Z,36
2019-02-24T12:36:15.945Z,32
2019-02-24T12:37:25.157Z,32
2019-02-24T12:38:34.160Z,36
2019-02-24T12:39:43.669Z,36
2019-02-24T12:40:52.943Z,36
2019-02-24T12:42:02.756Z,36
2019-02-24T12:43:12.221Z,36
2019-02-24T12:44:21.198Z,36
2019-02-24T12:45:30.447Z,36
2019-02-24T12:46:39.432Z,36
2019-02-24T12:47:48.949Z,36
2019-02-24T12:48:58.195Z,36
2019-02-24T12:50:10.689Z,40
2019-02-24T12:51:20.231Z,36
2019-02-24T12:52:29.228Z,36
2019-02-24T12:53:38.729Z,40
2019-02-24T12:54:47.757Z,36
2019-02-24T12:55:57.304Z,40
2019-02-24T12:57:07.101Z,36
2019-02-24T12:58:16.389Z,36
2019-02-24T12:59:25.898Z,40
2019-02-24T13:00:34.913Z,40
2019-02-24T13:01:44.391Z,40
2019-02-24T13:02:54.167Z,40
2019-02-24T13:04:04.178Z,44
2019-02-24T13:05:13.474Z,48
2019-02-24T13:06:22.494Z,44
2019-02-24T13:07:31.999Z,52
2019-02-24T13:08:41.742Z,48
2019-02-24T13:09:51.498Z,48
2019-02-24T13:11:00.995Z,52
2019-02-24T13:12:10.722Z,52
2019-02-24T13:13:20.244Z,56
2019-02-24T13:14:29.474Z,56
2019-02-24T13:15:38.739Z,56
2019-02-24T13:16:48.231Z,56
2019-02-24T13:17:57.767Z,56
2019-02-24T13:19:07.565Z,56
2019-02-24T13:20:17.337Z,60
2019-02-24T13:21:27.145Z,60
2019-02-24T13:22:36.717Z,64
2019-02-24T13:23:45.746Z,64
2019-02-24T13:24:55.253Z,64
2019-02-24T13:26:05.055Z,64
2019-02-24T13:27:14.556Z,64
2019-02-24T13:28:24.337Z,68
2019-02-24T13:29:33.876Z,68
2019-02-24T13:30:43.218Z,68
2019-02-24T13:31:52.290Z,68
2019-02-24T13:33:01.342Z,72
2019-02-24T13:34:10.612Z,68
2019-02-24T13:35:20.085Z,72
2019-02-24T13:36:29.604Z,72
2019-02-24T13:37:38.873Z,76
2019-02-24T13:38:48.386Z,72
2019-02-24T13:39:58.869Z,76
2019-02-24T13:41:08.103Z,76
2019-02-24T13:42:17.408Z,80
2019-02-24T13:43:26.429Z,76
2019-02-24T13:44:35.437Z,80
2019-02-24T13:45:44.721Z,80
2019-02-24T13:46:54.332Z,84
2019-02-24T13:48:04.141Z,84
2019-02-24T13:49:13.472Z,84
2019-02-24T13:50:22.738Z,80
2019-02-24T13:51:31.797Z,84
2019-02-24T13:52:41.126Z,84
2019-02-24T13:53:50.960Z,84
2019-02-24T13:55:00.548Z,88
2019-02-24T13:56:09.423Z,72
2019-02-24T13:57:18.994Z,76
2019-02-24T13:58:27.820Z,72
2019-02-24T13:59:37.403Z,72
2019-02-24T14:00:46.452Z,76
2019-02-24T14:01:56.077Z,72
2019-02-24T14:03:05.613Z,72
2019-02-24T14:04:14.872Z,76
2019-02-24T14:05:24.203Z,76
2019-02-24T14:06:33.488Z,76
2019-02-24T14:07:42.532Z,76
2019-02-24T14:08:52.362Z,76
2019-02-24T14:10:01.903Z,80
2019-02-24T14:11:10.918Z,80
2019-02-24T14:12:20.451Z,80
2019-02-24T14:13:29.777Z,80
2019-02-24T14:14:39.069Z,80
2019-02-24T14:15:56.170Z,80
2019-02-24T14:17:05.439Z,84
2019-02-24T14:18:14.710Z,80
2019-02-24T14:19:24.000Z,84
2019-02-24T14:20:33.071Z,84
2019-02-24T14:21:42.330Z,84
2019-02-24T14:22:52.137Z,84
2019-02-24T14:24:01.617Z,84
2019-02-24T14:25:10.904Z,80
2019-02-24T14:26:22.222Z,72
2019-02-24T14:27:30.936Z,64
2019-02-24T14:28:40.343Z,56
2019-02-24T14:29:49.835Z,44
2019-02-24T14:30:59.271Z,36
2019-02-24T14:32:08.758Z,24
2019-02-24T14:33:18.347Z,16
2019-02-24T14:34:27.856Z,16
2019-02-24T14:35:36.887Z,8
2019-02-24T14:36:46.602Z,8
2019-02-24T14:37:55.626Z,8
2019-02-24T14:39:04.927Z,8
2019-02-24T14:40:14.758Z,8
2019-02-24T14:41:24.308Z,8
2019-02-24T14:42:34.102Z,8
2019-02-24T14:43:43.896Z,8
2019-02-24T14:44:53.044Z,8
2019-02-24T14:46:02.274Z,8
2019-02-24T14:47:11.611Z,8
2019-02-24T14:48:20.410Z,8
2019-02-24T14:49:29.726Z,8
2019-02-24T14:50:39.249Z,8
2019-02-24T14:51:49.064Z,8
2019-02-24T14:52:58.547Z,8
2019-02-24T14:54:08.027Z,4
2019-02-24T14:55:17.297Z,4
2019-02-24T14:56:26.339Z,4
2019-02-24T14:57:35.342Z,8
2019-02-24T14:58:44.479Z,8
2019-02-24T14:59:53.876Z,8
2019-02-24T15:01:05.142Z,8
2019-02-24T15:02:14.704Z,8
2019-02-24T15:03:24.273Z,8
2019-02-24T15:04:33.331Z,8
2019-02-24T15:05:42.895Z,8
2019-02-24T15:06:52.417Z,8
2019-02-24T15:08:01.979Z,8
2019-02-24T15:09:11.515Z,4
2019-02-24T15:10:20.556Z,4
2019-02-24T15:11:29.929Z,4
2019-02-24T15:12:38.765Z,4
2019-02-24T15:13:48.040Z,4
2019-02-24T15:14:57.324Z,4
2019-02-24T15:16:06.610Z,4
2019-02-24T15:17:15.878Z,4
2019-02-24T15:18:25.677Z,4
2019-02-24T15:19:34.697Z,4
2019-02-24T15:20:44.294Z,8
2019-02-24T15:21:53.550Z,8
2019-02-24T15:23:03.327Z,8
2019-02-24T15:24:14.261Z,8
2019-02-24T15:25:23.780Z,4
2019-02-24T15:26:33.914Z,4
2019-02-24T15:27:42.931Z,8
2019-02-24T15:28:51.958Z,8
2019-02-24T15:30:01.221Z,8
2019-02-24T15:31:10.511Z,8
2019-02-24T15:32:19.795Z,4
2019-02-24T15:33:29.365Z,4
2019-02-24T15:34:39.146Z,4
2019-02-24T15:35:48.802Z,4
2019-02-24T15:36:58.104Z,4
2019-02-24T15:38:07.246Z,4
2019-02-24T15:39:16.501Z,4
2019-02-24T15:40:26.309Z,4
2019-02-24T15:41:37.002Z,4
2019-02-24T15:42:46.135Z,4
2019-02-24T15:43:55.687Z,4
2019-02-24T15:45:05.599Z,4
2019-02-24T15:46:14.944Z,4
2019-02-24T15:47:24.663Z,4
2019-02-24T15:48:33.771Z,4
2019-02-24T15:49:43.811Z,4
2019-02-24T15:50:52.632Z,4
2019-02-24T15:52:09.653Z,4
2019-02-24T15:53:19.232Z,4
2019-02-24T15:54:28.310Z,4
2019-02-24T15:55:38.237Z,4
2019-02-24T15:56:47.782Z,4
2019-02-24T15:57:56.803Z,4
2019-02-24T15:59:06.034Z,4
2019-02-24T16:00:15.284Z,0
2019-02-24T16:01:24.667Z,0
2019-02-24T16:02:34.018Z,4
2019-02-24T16:03:43.153Z,4
2019-02-24T16:04:52.710Z,4
2019-02-24T16:06:01.579Z,4
2019-02-24T16:07:10.700Z,4
2019-02-24T16:08:20.298Z,4
2019-02-24T16:09:29.605Z,4
2019-02-24T16:10:39.465Z,4
2019-02-24T16:11:48.477Z,0
2019-02-24T16:12:57.670Z,0
2019-02-24T16:14:06.976Z,0
2019-02-24T16:15:18.141Z,0
2019-02-24T16:16:27.218Z,4
2019-02-24T16:17:36.096Z,4
2019-02-24T16:18:45.709Z,4
2019-02-24T16:19:54.726Z,4
2019-02-24T16:21:03.806Z,4
2019-02-24T16:22:13.099Z,4
2019-02-24T16:23:22.725Z,4
2019-02-24T16:24:32.154Z,4
2019-02-24T16:25:42.038Z,4
2019-02-24T16:26:51.403Z,4
2019-02-24T16:28:00.469Z,4
2019-02-24T16:29:09.533Z,4
2019-02-24T16:30:18.649Z,4
2019-02-24T16:31:28.256Z,4
2019-02-24T16:32:37.560Z,4
2019-02-24T16:33:46.889Z,4
2019-02-24T16:34:56.263Z,0
2019-02-24T16:36:05.829Z,0
2019-02-24T16:37:14.940Z,0
2019-02-24T16:38:24.480Z,0
2019-02-24T16:39:34.022Z,0
2019-02-24T16:40:43.398Z,0
2019-02-24T16:41:52.503Z,0
2019-02-24T16:43:01.798Z,0
2019-02-24T16:44:11.588Z,0
2019-02-24T16:45:20.673Z,0
2019-02-24T16:46:30.306Z,0
2019-02-24T16:47:39.731Z,0
2019-02-24T16:48:49.780Z,0
2019-02-24T16:49:59.618Z,0
2019-02-24T16:51:09.415Z,0
2019-02-24T16:52:18.575Z,0
2019-02-24T16:53:27.871Z,0
2019-02-24T16:54:36.898Z,0
2019-02-24T16:55:45.938Z,0